sensor_id;sensor_type;location;lat;lon;timestamp;P1;durP1;ratioP1;P2;durP2;ratioP2
9115;SDS011;4593;53.652;10.168;2023-11-21T00:01:57;16.63;;;8.83;;
9115;SDS011;4593;53.652;10.168;2023-11-21T00:04:23;20.13;;;10.07;;
9115;SDS011;4593;53.652;10.168;2023-11-21T00:06:50;16.77;;;8.33;;
9115;SDS011;4593;53.652;10.168;2023-11-21T00:09:16;16.70;;;7.40;;
9115;SDS011;4593;53.652;10.168;2023-11-21T00:11:42;15.10;;;7.20;;
9115;SDS011;4593;53.652;10.168;2023-11-21T00:14:09;11.60;;;6.10;;
9115;SDS011;4593;53.652;10.168;2023-11-21T00:16:35;13.13;;;6.13;;
9115;SDS011;4593;53.652;10.168;2023-11-21T00:19:01;11.03;;;5.57;;
9115;SDS011;4593;53.652;10.168;2023-11-21T00:21:27;8.37;;;5.87;;
9115;SDS011;4593;53.652;10.168;2023-11-21T00:23:52;18.00;;;6.10;;
9115;SDS011;4593;53.652;10.168;2023-11-21T00:26:18;14.07;;;6.73;;
9115;SDS011;4593;53.652;10.168;2023-11-21T00:28:44;22.57;;;8.17;;
9115;SDS011;4593;53.652;10.168;2023-11-21T00:31:10;24.67;;;7.40;;
9115;SDS011;4593;53.652;10.168;2023-11-21T00:33:36;15.43;;;7.70;;
9115;SDS011;4593;53.652;10.168;2023-11-21T00:36:01;16.70;;;7.13;;
9115;SDS011;4593;53.652;10.168;2023-11-21T00:38:27;16.87;;;6.77;;
9115;SDS011;4593;53.652;10.168;2023-11-21T00:40:53;18.90;;;8.07;;
9115;SDS011;4593;53.652;10.168;2023-11-21T00:43:22;9.77;;;6.30;;
9115;SDS011;4593;53.652;10.168;2023-11-21T00:45:48;15.80;;;7.80;;
9115;SDS011;4593;53.652;10.168;2023-11-21T00:48:16;15.50;;;8.23;;
9115;SDS011;4593;53.652;10.168;2023-11-21T00:50:43;12.50;;;7.37;;
9115;SDS011;4593;53.652;10.168;2023-11-21T00:53:09;15.73;;;6.97;;
9115;SDS011;4593;53.652;10.168;2023-11-21T00:55:36;12.13;;;7.23;;
9115;SDS011;4593;53.652;10.168;2023-11-21T00:58:02;11.83;;;6.53;;
9115;SDS011;4593;53.652;10.168;2023-11-21T01:00:29;11.80;;;7.57;;
9115;SDS011;4593;53.652;10.168;2023-11-21T01:02:55;11.73;;;7.20;;
9115;SDS011;4593;53.652;10.168;2023-11-21T01:05:21;14.97;;;6.83;;
9115;SDS011;4593;53.652;10.168;2023-11-21T01:07:46;11.20;;;7.57;;
9115;SDS011;4593;53.652;10.168;2023-11-21T01:10:12;15.83;;;8.73;;
9115;SDS011;4593;53.652;10.168;2023-11-21T01:12:38;17.60;;;8.70;;
9115;SDS011;4593;53.652;10.168;2023-11-21T01:15:06;14.53;;;7.70;;
9115;SDS011;4593;53.652;10.168;2023-11-21T01:17:32;17.20;;;8.20;;
9115;SDS011;4593;53.652;10.168;2023-11-21T01:19:59;20.67;;;7.07;;
9115;SDS011;4593;53.652;10.168;2023-11-21T01:22:25;11.87;;;7.13;;
9115;SDS011;4593;53.652;10.168;2023-11-21T01:24:54;13.93;;;5.77;;
9115;SDS011;4593;53.652;10.168;2023-11-21T01:27:20;10.70;;;6.30;;
9115;SDS011;4593;53.652;10.168;2023-11-21T01:29:45;15.13;;;7.47;;
9115;SDS011;4593;53.652;10.168;2023-11-21T01:32:11;13.73;;;6.53;;
9115;SDS011;4593;53.652;10.168;2023-11-21T01:34:37;8.43;;;5.97;;
9115;SDS011;4593;53.652;10.168;2023-11-21T01:37:03;10.03;;;5.63;;
9115;SDS011;4593;53.652;10.168;2023-11-21T01:39:30;10.07;;;5.77;;
9115;SDS011;4593;53.652;10.168;2023-11-21T01:41:56;8.67;;;5.27;;
9115;SDS011;4593;53.652;10.168;2023-11-21T01:44:23;12.57;;;5.93;;
9115;SDS011;4593;53.652;10.168;2023-11-21T01:46:49;8.27;;;5.53;;
9115;SDS011;4593;53.652;10.168;2023-11-21T01:49:16;10.83;;;5.33;;
9115;SDS011;4593;53.652;10.168;2023-11-21T01:51:43;10.17;;;5.57;;
9115;SDS011;4593;53.652;10.168;2023-11-21T01:54:13;8.00;;;5.27;;
9115;SDS011;4593;53.652;10.168;2023-11-21T01:56:40;10.17;;;5.23;;
9115;SDS011;4593;53.652;10.168;2023-11-21T01:59:05;8.47;;;5.40;;
9115;SDS011;4593;53.652;10.168;2023-11-21T02:01:32;7.87;;;5.57;;
9115;SDS011;4593;53.652;10.168;2023-11-21T02:03:59;7.97;;;4.93;;
9115;SDS011;4593;53.652;10.168;2023-11-21T02:06:24;10.33;;;4.90;;
9115;SDS011;4593;53.652;10.168;2023-11-21T02:08:50;8.97;;;5.73;;
9115;SDS011;4593;53.652;10.168;2023-11-21T02:11:16;8.80;;;5.10;;
9115;SDS011;4593;53.652;10.168;2023-11-21T02:13:44;15.07;;;5.53;;
9115;SDS011;4593;53.652;10.168;2023-11-21T02:16:10;9.43;;;5.60;;
9115;SDS011;4593;53.652;10.168;2023-11-21T02:18:37;7.07;;;5.27;;
9115;SDS011;4593;53.652;10.168;2023-11-21T02:21:04;9.63;;;5.37;;
9115;SDS011;4593;53.652;10.168;2023-11-21T02:23:30;7.00;;;5.27;;
9115;SDS011;4593;53.652;10.168;2023-11-21T02:25:56;11.50;;;6.00;;
9115;SDS011;4593;53.652;10.168;2023-11-21T02:28:21;8.73;;;5.57;;
9115;SDS011;4593;53.652;10.168;2023-11-21T02:30:51;9.03;;;5.73;;
9115;SDS011;4593;53.652;10.168;2023-11-21T02:33:24;12.57;;;5.20;;
9115;SDS011;4593;53.652;10.168;2023-11-21T02:35:49;6.77;;;4.50;;
9115;SDS011;4593;53.652;10.168;2023-11-21T02:38:19;8.57;;;4.87;;
9115;SDS011;4593;53.652;10.168;2023-11-21T02:40:46;7.47;;;5.20;;
9115;SDS011;4593;53.652;10.168;2023-11-21T02:43:11;11.60;;;6.17;;
9115;SDS011;4593;53.652;10.168;2023-11-21T02:45:37;9.07;;;5.70;;
9115;SDS011;4593;53.652;10.168;2023-11-21T02:48:03;8.27;;;5.60;;
9115;SDS011;4593;53.652;10.168;2023-11-21T02:50:29;7.03;;;4.90;;
9115;SDS011;4593;53.652;10.168;2023-11-21T02:52:55;8.43;;;5.20;;
9115;SDS011;4593;53.652;10.168;2023-11-21T02:55:22;11.03;;;6.20;;
9115;SDS011;4593;53.652;10.168;2023-11-21T02:57:50;9.23;;;5.17;;
9115;SDS011;4593;53.652;10.168;2023-11-21T03:00:15;8.47;;;4.93;;
9115;SDS011;4593;53.652;10.168;2023-11-21T03:02:42;13.17;;;5.47;;
9115;SDS011;4593;53.652;10.168;2023-11-21T03:05:08;6.90;;;5.10;;
9115;SDS011;4593;53.652;10.168;2023-11-21T03:07:35;9.13;;;5.47;;
9115;SDS011;4593;53.652;10.168;2023-11-21T03:10:03;7.20;;;5.47;;
9115;SDS011;4593;53.652;10.168;2023-11-21T03:12:30;8.30;;;5.60;;
9115;SDS011;4593;53.652;10.168;2023-11-21T03:14:55;11.07;;;5.73;;
9115;SDS011;4593;53.652;10.168;2023-11-21T03:17:21;13.23;;;4.77;;
9115;SDS011;4593;53.652;10.168;2023-11-21T03:19:46;8.30;;;5.00;;
9115;SDS011;4593;53.652;10.168;2023-11-21T03:22:12;6.07;;;4.07;;
9115;SDS011;4593;53.652;10.168;2023-11-21T03:24:38;9.70;;;5.87;;
9115;SDS011;4593;53.652;10.168;2023-11-21T03:27:04;9.00;;;5.47;;
9115;SDS011;4593;53.652;10.168;2023-11-21T03:29:30;9.53;;;5.63;;
9115;SDS011;4593;53.652;10.168;2023-11-21T03:31:55;8.23;;;5.30;;
9115;SDS011;4593;53.652;10.168;2023-11-21T03:34:25;11.13;;;5.70;;
9115;SDS011;4593;53.652;10.168;2023-11-21T03:36:51;8.90;;;4.93;;
9115;SDS011;4593;53.652;10.168;2023-11-21T03:39:17;11.40;;;5.30;;
9115;SDS011;4593;53.652;10.168;2023-11-21T03:41:44;9.00;;;5.47;;
9115;SDS011;4593;53.652;10.168;2023-11-21T03:44:10;9.10;;;5.30;;
9115;SDS011;4593;53.652;10.168;2023-11-21T03:46:35;8.63;;;5.30;;
9115;SDS011;4593;53.652;10.168;2023-11-21T03:49:01;7.50;;;4.63;;
9115;SDS011;4593;53.652;10.168;2023-11-21T03:51:27;7.37;;;5.20;;
9115;SDS011;4593;53.652;10.168;2023-11-21T03:53:52;9.03;;;6.20;;
9115;SDS011;4593;53.652;10.168;2023-11-21T03:56:18;7.10;;;5.13;;
9115;SDS011;4593;53.652;10.168;2023-11-21T03:58:46;9.47;;;6.30;;
9115;SDS011;4593;53.652;10.168;2023-11-21T04:01:18;7.30;;;5.10;;
9115;SDS011;4593;53.652;10.168;2023-11-21T04:03:48;7.67;;;5.53;;
9115;SDS011;4593;53.652;10.168;2023-11-21T04:06:14;7.53;;;4.87;;
9115;SDS011;4593;53.652;10.168;2023-11-21T04:08:40;10.10;;;6.20;;
9115;SDS011;4593;53.652;10.168;2023-11-21T04:11:05;7.67;;;4.90;;
9115;SDS011;4593;53.652;10.168;2023-11-21T04:13:31;8.17;;;5.23;;
9115;SDS011;4593;53.652;10.168;2023-11-21T04:15:56;8.03;;;5.20;;
9115;SDS011;4593;53.652;10.168;2023-11-21T04:18:22;8.77;;;5.67;;
9115;SDS011;4593;53.652;10.168;2023-11-21T04:20:51;8.23;;;5.40;;
9115;SDS011;4593;53.652;10.168;2023-11-21T04:23:16;10.17;;;6.33;;
9115;SDS011;4593;53.652;10.168;2023-11-21T04:25:42;9.20;;;5.90;;
9115;SDS011;4593;53.652;10.168;2023-11-21T04:28:08;7.63;;;5.37;;
9115;SDS011;4593;53.652;10.168;2023-11-21T04:30:33;8.40;;;5.23;;
9115;SDS011;4593;53.652;10.168;2023-11-21T04:32:59;10.00;;;5.97;;
9115;SDS011;4593;53.652;10.168;2023-11-21T04:35:24;8.20;;;6.20;;
9115;SDS011;4593;53.652;10.168;2023-11-21T04:37:50;8.13;;;5.30;;
9115;SDS011;4593;53.652;10.168;2023-11-21T04:40:16;6.93;;;4.73;;
9115;SDS011;4593;53.652;10.168;2023-11-21T04:42:42;6.87;;;5.20;;
9115;SDS011;4593;53.652;10.168;2023-11-21T04:45:07;9.30;;;5.17;;
9115;SDS011;4593;53.652;10.168;2023-11-21T04:47:34;6.97;;;5.00;;
9115;SDS011;4593;53.652;10.168;2023-11-21T04:50:01;6.40;;;4.97;;
9115;SDS011;4593;53.652;10.168;2023-11-21T04:52:28;7.67;;;5.27;;
9115;SDS011;4593;53.652;10.168;2023-11-21T04:54:54;9.47;;;4.67;;
9115;SDS011;4593;53.652;10.168;2023-11-21T04:57:20;8.37;;;5.47;;
9115;SDS011;4593;53.652;10.168;2023-11-21T04:59:46;8.63;;;5.57;;
9115;SDS011;4593;53.652;10.168;2023-11-21T05:02:13;7.33;;;4.90;;
9115;SDS011;4593;53.652;10.168;2023-11-21T05:04:39;12.33;;;6.63;;
9115;SDS011;4593;53.652;10.168;2023-11-21T05:07:05;7.37;;;4.73;;
9115;SDS011;4593;53.652;10.168;2023-11-21T05:09:30;8.30;;;4.63;;
9115;SDS011;4593;53.652;10.168;2023-11-21T05:11:57;8.33;;;5.40;;
9115;SDS011;4593;53.652;10.168;2023-11-21T05:14:23;12.57;;;5.80;;
9115;SDS011;4593;53.652;10.168;2023-11-21T05:16:48;6.67;;;4.93;;
9115;SDS011;4593;53.652;10.168;2023-11-21T05:19:16;7.50;;;5.33;;
9115;SDS011;4593;53.652;10.168;2023-11-21T05:21:41;6.37;;;5.17;;
9115;SDS011;4593;53.652;10.168;2023-11-21T05:24:07;8.17;;;5.77;;
9115;SDS011;4593;53.652;10.168;2023-11-21T05:26:33;9.23;;;5.10;;
9115;SDS011;4593;53.652;10.168;2023-11-21T05:28:58;7.43;;;4.87;;
9115;SDS011;4593;53.652;10.168;2023-11-21T05:31:24;7.97;;;5.20;;
9115;SDS011;4593;53.652;10.168;2023-11-21T05:33:49;6.63;;;4.90;;
9115;SDS011;4593;53.652;10.168;2023-11-21T05:36:15;7.67;;;5.10;;
9115;SDS011;4593;53.652;10.168;2023-11-21T05:38:41;6.80;;;5.00;;
9115;SDS011;4593;53.652;10.168;2023-11-21T05:41:06;9.10;;;5.73;;
9115;SDS011;4593;53.652;10.168;2023-11-21T05:43:33;6.87;;;5.17;;
9115;SDS011;4593;53.652;10.168;2023-11-21T05:46:00;10.20;;;4.80;;
9115;SDS011;4593;53.652;10.168;2023-11-21T05:48:26;8.77;;;5.23;;
9115;SDS011;4593;53.652;10.168;2023-11-21T05:50:52;6.73;;;5.00;;
9115;SDS011;4593;53.652;10.168;2023-11-21T05:53:18;7.70;;;5.43;;
9115;SDS011;4593;53.652;10.168;2023-11-21T05:55:43;7.63;;;5.50;;
9115;SDS011;4593;53.652;10.168;2023-11-21T05:58:09;8.10;;;5.50;;
9115;SDS011;4593;53.652;10.168;2023-11-21T06:00:34;7.43;;;5.27;;
9115;SDS011;4593;53.652;10.168;2023-11-21T06:03:01;9.40;;;5.60;;
9115;SDS011;4593;53.652;10.168;2023-11-21T06:05:26;8.00;;;5.67;;
9115;SDS011;4593;53.652;10.168;2023-11-21T06:07:53;10.13;;;5.30;;
9115;SDS011;4593;53.652;10.168;2023-11-21T06:10:20;9.03;;;4.90;;
9115;SDS011;4593;53.652;10.168;2023-11-21T06:12:46;8.90;;;5.50;;
9115;SDS011;4593;53.652;10.168;2023-11-21T06:15:12;8.50;;;5.60;;
9115;SDS011;4593;53.652;10.168;2023-11-21T06:17:41;8.47;;;5.27;;
9115;SDS011;4593;53.652;10.168;2023-11-21T06:20:08;8.10;;;4.60;;
9115;SDS011;4593;53.652;10.168;2023-11-21T06:22:40;13.50;;;5.47;;
9115;SDS011;4593;53.652;10.168;2023-11-21T06:25:10;8.13;;;5.13;;
9115;SDS011;4593;53.652;10.168;2023-11-21T06:27:38;5.27;;;4.43;;
9115;SDS011;4593;53.652;10.168;2023-11-21T06:30:05;7.47;;;4.97;;
9115;SDS011;4593;53.652;10.168;2023-11-21T06:32:33;7.30;;;5.40;;
9115;SDS011;4593;53.652;10.168;2023-11-21T06:34:59;9.73;;;4.87;;
9115;SDS011;4593;53.652;10.168;2023-11-21T06:37:26;7.40;;;4.87;;
9115;SDS011;4593;53.652;10.168;2023-11-21T06:39:52;6.83;;;4.73;;
9115;SDS011;4593;53.652;10.168;2023-11-21T06:42:18;6.53;;;4.30;;
9115;SDS011;4593;53.652;10.168;2023-11-21T06:44:45;10.27;;;5.53;;
9115;SDS011;4593;53.652;10.168;2023-11-21T06:47:11;9.33;;;5.90;;
9115;SDS011;4593;53.652;10.168;2023-11-21T06:49:37;9.47;;;5.10;;
9115;SDS011;4593;53.652;10.168;2023-11-21T06:52:03;6.10;;;4.87;;
9115;SDS011;4593;53.652;10.168;2023-11-21T06:54:30;5.53;;;4.53;;
9115;SDS011;4593;53.652;10.168;2023-11-21T06:56:57;7.97;;;5.17;;
9115;SDS011;4593;53.652;10.168;2023-11-21T06:59:23;7.67;;;4.53;;
9115;SDS011;4593;53.652;10.168;2023-11-21T07:01:49;5.90;;;4.30;;
9115;SDS011;4593;53.652;10.168;2023-11-21T07:04:15;7.13;;;4.87;;
9115;SDS011;4593;53.652;10.168;2023-11-21T07:06:41;12.47;;;4.57;;
9115;SDS011;4593;53.652;10.168;2023-11-21T07:09:08;6.80;;;5.30;;
9115;SDS011;4593;53.652;10.168;2023-11-21T07:11:37;6.90;;;4.87;;
9115;SDS011;4593;53.652;10.168;2023-11-21T07:14:06;6.10;;;4.63;;
9115;SDS011;4593;53.652;10.168;2023-11-21T07:16:35;7.60;;;5.27;;
9115;SDS011;4593;53.652;10.168;2023-11-21T07:19:03;6.07;;;5.10;;
9115;SDS011;4593;53.652;10.168;2023-11-21T07:21:31;6.27;;;4.77;;
9115;SDS011;4593;53.652;10.168;2023-11-21T07:24:01;7.93;;;5.43;;
9115;SDS011;4593;53.652;10.168;2023-11-21T07:26:31;7.90;;;5.33;;
9115;SDS011;4593;53.652;10.168;2023-11-21T07:28:57;11.50;;;5.20;;
9115;SDS011;4593;53.652;10.168;2023-11-21T07:31:22;6.87;;;4.63;;
9115;SDS011;4593;53.652;10.168;2023-11-21T07:33:49;7.53;;;5.33;;
9115;SDS011;4593;53.652;10.168;2023-11-21T07:36:15;10.13;;;5.53;;
9115;SDS011;4593;53.652;10.168;2023-11-21T07:38:43;10.63;;;5.03;;
9115;SDS011;4593;53.652;10.168;2023-11-21T07:41:10;14.00;;;5.17;;
9115;SDS011;4593;53.652;10.168;2023-11-21T07:43:36;5.23;;;4.50;;
9115;SDS011;4593;53.652;10.168;2023-11-21T07:46:02;6.87;;;5.10;;
9115;SDS011;4593;53.652;10.168;2023-11-21T07:48:31;6.13;;;5.03;;
9115;SDS011;4593;53.652;10.168;2023-11-21T07:50:58;6.70;;;4.77;;
9115;SDS011;4593;53.652;10.168;2023-11-21T07:53:27;6.97;;;5.00;;
9115;SDS011;4593;53.652;10.168;2023-11-21T07:55:55;6.03;;;4.23;;
9115;SDS011;4593;53.652;10.168;2023-11-21T07:58:24;5.33;;;4.13;;
9115;SDS011;4593;53.652;10.168;2023-11-21T08:00:50;14.27;;;4.57;;
9115;SDS011;4593;53.652;10.168;2023-11-21T08:03:16;6.70;;;4.63;;
9115;SDS011;4593;53.652;10.168;2023-11-21T08:05:42;10.70;;;3.70;;
9115;SDS011;4593;53.652;10.168;2023-11-21T08:08:08;4.77;;;4.13;;
9115;SDS011;4593;53.652;10.168;2023-11-21T08:10:34;8.07;;;3.83;;
9115;SDS011;4593;53.652;10.168;2023-11-21T08:13:01;5.07;;;4.57;;
9115;SDS011;4593;53.652;10.168;2023-11-21T08:15:27;4.63;;;3.73;;
9115;SDS011;4593;53.652;10.168;2023-11-21T08:17:52;7.83;;;4.80;;
9115;SDS011;4593;53.652;10.168;2023-11-21T08:20:18;6.80;;;4.87;;
9115;SDS011;4593;53.652;10.168;2023-11-21T08:22:44;4.43;;;3.60;;
9115;SDS011;4593;53.652;10.168;2023-11-21T08:25:12;5.07;;;4.30;;
9115;SDS011;4593;53.652;10.168;2023-11-21T08:27:38;4.57;;;3.60;;
9115;SDS011;4593;53.652;10.168;2023-11-21T08:30:04;4.50;;;4.07;;
9115;SDS011;4593;53.652;10.168;2023-11-21T08:32:30;5.27;;;4.20;;
9115;SDS011;4593;53.652;10.168;2023-11-21T08:34:58;4.87;;;4.27;;
9115;SDS011;4593;53.652;10.168;2023-11-21T08:37:24;10.20;;;3.90;;
9115;SDS011;4593;53.652;10.168;2023-11-21T08:39:52;4.77;;;3.87;;
9115;SDS011;4593;53.652;10.168;2023-11-21T08:42:19;4.57;;;3.67;;
9115;SDS011;4593;53.652;10.168;2023-11-21T08:44:45;4.07;;;3.53;;
9115;SDS011;4593;53.652;10.168;2023-11-21T08:47:11;4.47;;;3.83;;
9115;SDS011;4593;53.652;10.168;2023-11-21T08:49:37;4.10;;;3.23;;
9115;SDS011;4593;53.652;10.168;2023-11-21T08:52:03;8.23;;;3.90;;
9115;SDS011;4593;53.652;10.168;2023-11-21T08:54:30;3.87;;;3.47;;
9115;SDS011;4593;53.652;10.168;2023-11-21T08:56:56;3.83;;;3.40;;
9115;SDS011;4593;53.652;10.168;2023-11-21T08:59:23;5.57;;;4.13;;
9115;SDS011;4593;53.652;10.168;2023-11-21T09:01:49;3.63;;;3.10;;
9115;SDS011;4593;53.652;10.168;2023-11-21T09:04:15;5.00;;;3.80;;
9115;SDS011;4593;53.652;10.168;2023-11-21T09:06:41;5.90;;;4.07;;
9115;SDS011;4593;53.652;10.168;2023-11-21T09:09:07;5.17;;;3.60;;
9115;SDS011;4593;53.652;10.168;2023-11-21T09:11:35;5.10;;;3.80;;
9115;SDS011;4593;53.652;10.168;2023-11-21T09:14:01;5.03;;;3.73;;
9115;SDS011;4593;53.652;10.168;2023-11-21T09:16:28;5.50;;;4.23;;
9115;SDS011;4593;53.652;10.168;2023-11-21T09:18:54;4.07;;;3.53;;
9115;SDS011;4593;53.652;10.168;2023-11-21T09:21:20;3.80;;;3.33;;
9115;SDS011;4593;53.652;10.168;2023-11-21T09:23:46;4.53;;;3.70;;
9115;SDS011;4593;53.652;10.168;2023-11-21T09:26:13;7.60;;;3.40;;
9115;SDS011;4593;53.652;10.168;2023-11-21T09:28:41;5.30;;;3.20;;
9115;SDS011;4593;53.652;10.168;2023-11-21T09:31:11;4.50;;;3.60;;
9115;SDS011;4593;53.652;10.168;2023-11-21T09:33:37;4.37;;;3.50;;
9115;SDS011;4593;53.652;10.168;2023-11-21T09:36:03;4.67;;;3.70;;
9115;SDS011;4593;53.652;10.168;2023-11-21T09:38:30;4.93;;;3.97;;
9115;SDS011;4593;53.652;10.168;2023-11-21T09:40:56;4.80;;;3.60;;
9115;SDS011;4593;53.652;10.168;2023-11-21T09:43:24;5.23;;;3.70;;
9115;SDS011;4593;53.652;10.168;2023-11-21T09:45:56;4.10;;;3.33;;
9115;SDS011;4593;53.652;10.168;2023-11-21T09:48:26;8.43;;;3.40;;
9115;SDS011;4593;53.652;10.168;2023-11-21T09:50:51;6.17;;;3.60;;
9115;SDS011;4593;53.652;10.168;2023-11-21T09:53:20;4.00;;;3.60;;
9115;SDS011;4593;53.652;10.168;2023-11-21T09:55:47;5.17;;;3.60;;
9115;SDS011;4593;53.652;10.168;2023-11-21T09:58:16;4.40;;;3.90;;
9115;SDS011;4593;53.652;10.168;2023-11-21T10:00:45;4.13;;;3.40;;
9115;SDS011;4593;53.652;10.168;2023-11-21T10:03:11;3.30;;;3.00;;
9115;SDS011;4593;53.652;10.168;2023-11-21T10:05:38;3.77;;;3.07;;
9115;SDS011;4593;53.652;10.168;2023-11-21T10:08:08;3.33;;;2.93;;
9115;SDS011;4593;53.652;10.168;2023-11-21T10:10:36;3.30;;;3.00;;
9115;SDS011;4593;53.652;10.168;2023-11-21T10:13:03;2.90;;;2.70;;
9115;SDS011;4593;53.652;10.168;2023-11-21T10:15:31;3.73;;;2.90;;
9115;SDS011;4593;53.652;10.168;2023-11-21T10:17:59;3.73;;;3.33;;
9115;SDS011;4593;53.652;10.168;2023-11-21T10:20:32;4.53;;;3.67;;
9115;SDS011;4593;53.652;10.168;2023-11-21T10:23:03;3.77;;;3.33;;
9115;SDS011;4593;53.652;10.168;2023-11-21T10:25:29;6.93;;;3.63;;
9115;SDS011;4593;53.652;10.168;2023-11-21T10:27:59;3.10;;;2.90;;
9115;SDS011;4593;53.652;10.168;2023-11-21T10:30:32;3.43;;;2.93;;
9115;SDS011;4593;53.652;10.168;2023-11-21T10:33:06;4.77;;;3.40;;
9115;SDS011;4593;53.652;10.168;2023-11-21T10:38:07;3.17;;;2.93;;
9115;SDS011;4593;53.652;10.168;2023-11-21T10:40:38;4.67;;;3.40;;
9115;SDS011;4593;53.652;10.168;2023-11-21T10:43:10;3.50;;;3.20;;
9115;SDS011;4593;53.652;10.168;2023-11-21T10:45:40;5.47;;;3.30;;
9115;SDS011;4593;53.652;10.168;2023-11-21T10:48:10;5.87;;;3.07;;
9115;SDS011;4593;53.652;10.168;2023-11-21T10:50:40;3.37;;;3.07;;
9115;SDS011;4593;53.652;10.168;2023-11-21T10:53:06;4.13;;;3.00;;
9115;SDS011;4593;53.652;10.168;2023-11-21T10:55:32;4.40;;;3.53;;
9115;SDS011;4593;53.652;10.168;2023-11-21T10:57:59;3.97;;;3.57;;
9115;SDS011;4593;53.652;10.168;2023-11-21T11:00:30;7.70;;;3.47;;
9115;SDS011;4593;53.652;10.168;2023-11-21T11:02:57;3.17;;;2.83;;
9115;SDS011;4593;53.652;10.168;2023-11-21T11:05:24;3.00;;;2.73;;
9115;SDS011;4593;53.652;10.168;2023-11-21T11:08:04;2.90;;;2.60;;
9115;SDS011;4593;53.652;10.168;2023-11-21T11:10:33;2.83;;;2.63;;
9115;SDS011;4593;53.652;10.168;2023-11-21T11:12:59;3.33;;;3.03;;
9115;SDS011;4593;53.652;10.168;2023-11-21T11:15:25;5.73;;;3.20;;
9115;SDS011;4593;53.652;10.168;2023-11-21T11:17:52;3.20;;;2.90;;
9115;SDS011;4593;53.652;10.168;2023-11-21T11:20:31;2.90;;;2.63;;
9115;SDS011;4593;53.652;10.168;2023-11-21T11:25:53;3.07;;;2.60;;
9115;SDS011;4593;53.652;10.168;2023-11-21T11:29:02;3.53;;;3.20;;
9115;SDS011;4593;53.652;10.168;2023-11-21T11:36:51;4.83;;;2.80;;
9115;SDS011;4593;53.652;10.168;2023-11-21T11:39:37;4.53;;;2.83;;
9115;SDS011;4593;53.652;10.168;2023-11-21T11:42:07;3.70;;;3.10;;
9115;SDS011;4593;53.652;10.168;2023-11-21T11:47:14;3.83;;;3.00;;
9115;SDS011;4593;53.652;10.168;2023-11-21T11:50:14;4.13;;;2.87;;
9115;SDS011;4593;53.652;10.168;2023-11-21T11:52:48;3.03;;;2.83;;
9115;SDS011;4593;53.652;10.168;2023-11-21T11:55:17;3.83;;;2.37;;
9115;SDS011;4593;53.652;10.168;2023-11-21T11:57:44;2.80;;;2.60;;
9115;SDS011;4593;53.652;10.168;2023-11-21T12:02:53;3.03;;;2.70;;
9115;SDS011;4593;53.652;10.168;2023-11-21T12:05:38;3.20;;;2.73;;
9115;SDS011;4593;53.652;10.168;2023-11-21T12:08:07;3.07;;;2.87;;
9115;SDS011;4593;53.652;10.168;2023-11-21T12:10:34;6.10;;;3.00;;
9115;SDS011;4593;53.652;10.168;2023-11-21T12:13:05;3.70;;;3.23;;
9115;SDS011;4593;53.652;10.168;2023-11-21T12:15:32;2.90;;;2.70;;
9115;SDS011;4593;53.652;10.168;2023-11-21T12:18:00;3.23;;;2.60;;
9115;SDS011;4593;53.652;10.168;2023-11-21T12:20:26;3.33;;;2.90;;
9115;SDS011;4593;53.652;10.168;2023-11-21T12:22:56;3.80;;;2.97;;
9115;SDS011;4593;53.652;10.168;2023-11-21T12:25:28;3.27;;;2.83;;
9115;SDS011;4593;53.652;10.168;2023-11-21T12:27:56;2.97;;;2.53;;
9115;SDS011;4593;53.652;10.168;2023-11-21T12:30:23;3.80;;;3.20;;
9115;SDS011;4593;53.652;10.168;2023-11-21T12:32:53;2.60;;;2.40;;
9115;SDS011;4593;53.652;10.168;2023-11-21T12:35:26;3.87;;;3.30;;
9115;SDS011;4593;53.652;10.168;2023-11-21T12:37:53;3.00;;;2.80;;
9115;SDS011;4593;53.652;10.168;2023-11-21T12:40:22;8.77;;;3.20;;
9115;SDS011;4593;53.652;10.168;2023-11-21T12:42:49;3.53;;;2.50;;
9115;SDS011;4593;53.652;10.168;2023-11-21T12:47:52;3.77;;;2.90;;
9115;SDS011;4593;53.652;10.168;2023-11-21T12:50:26;4.33;;;2.87;;
9115;SDS011;4593;53.652;10.168;2023-11-21T12:52:59;3.43;;;2.70;;
9115;SDS011;4593;53.652;10.168;2023-11-21T12:55:29;2.63;;;2.43;;
9115;SDS011;4593;53.652;10.168;2023-11-21T12:58:02;3.23;;;2.93;;
9115;SDS011;4593;53.652;10.168;2023-11-21T13:00:37;4.80;;;3.13;;
9115;SDS011;4593;53.652;10.168;2023-11-21T13:03:14;3.50;;;3.03;;
9115;SDS011;4593;53.652;10.168;2023-11-21T13:05:43;2.93;;;2.73;;
9115;SDS011;4593;53.652;10.168;2023-11-21T13:08:11;2.67;;;2.47;;
9115;SDS011;4593;53.652;10.168;2023-11-21T13:10:41;6.07;;;3.20;;
9115;SDS011;4593;53.652;10.168;2023-11-21T13:13:11;3.20;;;2.87;;
9115;SDS011;4593;53.652;10.168;2023-11-21T13:18:15;3.20;;;2.50;;
9115;SDS011;4593;53.652;10.168;2023-11-21T13:20:42;5.63;;;2.90;;
9115;SDS011;4593;53.652;10.168;2023-11-21T13:23:08;3.13;;;2.83;;
9115;SDS011;4593;53.652;10.168;2023-11-21T13:25:37;4.20;;;3.07;;
9115;SDS011;4593;53.652;10.168;2023-11-21T13:28:06;3.33;;;3.03;;
9115;SDS011;4593;53.652;10.168;2023-11-21T13:30:32;2.97;;;2.67;;
9115;SDS011;4593;53.652;10.168;2023-11-21T13:33:03;4.13;;;3.00;;
9115;SDS011;4593;53.652;10.168;2023-11-21T13:35:39;4.83;;;3.13;;
9115;SDS011;4593;53.652;10.168;2023-11-21T13:38:12;5.60;;;3.17;;
9115;SDS011;4593;53.652;10.168;2023-11-21T13:40:40;3.23;;;2.93;;
9115;SDS011;4593;53.652;10.168;2023-11-21T13:43:11;2.90;;;2.70;;
9115;SDS011;4593;53.652;10.168;2023-11-21T13:45:42;2.93;;;2.53;;
9115;SDS011;4593;53.652;10.168;2023-11-21T13:48:09;3.10;;;2.83;;
9115;SDS011;4593;53.652;10.168;2023-11-21T13:50:41;5.60;;;3.03;;
9115;SDS011;4593;53.652;10.168;2023-11-21T13:53:21;11.00;;;2.93;;
9115;SDS011;4593;53.652;10.168;2023-11-21T13:55:51;2.97;;;2.73;;
9115;SDS011;4593;53.652;10.168;2023-11-21T13:58:19;3.80;;;3.33;;
9115;SDS011;4593;53.652;10.168;2023-11-21T14:00:53;3.87;;;3.47;;
9115;SDS011;4593;53.652;10.168;2023-11-21T14:03:22;4.07;;;2.97;;
9115;SDS011;4593;53.652;10.168;2023-11-21T14:05:57;3.13;;;2.70;;
9115;SDS011;4593;53.652;10.168;2023-11-21T14:08:25;3.20;;;2.63;;
9115;SDS011;4593;53.652;10.168;2023-11-21T14:10:54;3.97;;;2.73;;
9115;SDS011;4593;53.652;10.168;2023-11-21T14:13:24;3.30;;;3.00;;
9115;SDS011;4593;53.652;10.168;2023-11-21T14:15:50;2.87;;;2.67;;
9115;SDS011;4593;53.652;10.168;2023-11-21T14:18:23;2.40;;;2.20;;
9115;SDS011;4593;53.652;10.168;2023-11-21T14:20:55;3.10;;;2.80;;
9115;SDS011;4593;53.652;10.168;2023-11-21T14:23:21;3.10;;;2.40;;
9115;SDS011;4593;53.652;10.168;2023-11-21T14:25:48;3.10;;;2.27;;
9115;SDS011;4593;53.652;10.168;2023-11-21T14:28:15;3.87;;;2.63;;
9115;SDS011;4593;53.652;10.168;2023-11-21T14:30:41;2.50;;;2.30;;
9115;SDS011;4593;53.652;10.168;2023-11-21T14:33:08;2.23;;;2.13;;
9115;SDS011;4593;53.652;10.168;2023-11-21T14:35:36;3.00;;;2.70;;
9115;SDS011;4593;53.652;10.168;2023-11-21T14:38:02;3.73;;;2.40;;
9115;SDS011;4593;53.652;10.168;2023-11-21T14:40:30;3.20;;;2.83;;
9115;SDS011;4593;53.652;10.168;2023-11-21T14:43:07;2.70;;;2.50;;
9115;SDS011;4593;53.652;10.168;2023-11-21T14:45:33;3.27;;;2.60;;
9115;SDS011;4593;53.652;10.168;2023-11-21T14:47:59;3.17;;;2.60;;
9115;SDS011;4593;53.652;10.168;2023-11-21T14:50:51;2.50;;;2.30;;
9115;SDS011;4593;53.652;10.168;2023-11-21T14:53:17;2.53;;;2.33;;
9115;SDS011;4593;53.652;10.168;2023-11-21T14:56:02;2.20;;;2.00;;
9115;SDS011;4593;53.652;10.168;2023-11-21T14:58:29;2.87;;;2.40;;
9115;SDS011;4593;53.652;10.168;2023-11-21T15:00:55;2.47;;;2.27;;
9115;SDS011;4593;53.652;10.168;2023-11-21T15:03:25;3.03;;;2.47;;
9115;SDS011;4593;53.652;10.168;2023-11-21T15:05:58;4.87;;;2.93;;
9115;SDS011;4593;53.652;10.168;2023-11-21T15:08:37;4.53;;;2.37;;
9115;SDS011;4593;53.652;10.168;2023-11-21T15:11:03;2.67;;;2.47;;
9115;SDS011;4593;53.652;10.168;2023-11-21T15:13:32;2.37;;;2.17;;
9115;SDS011;4593;53.652;10.168;2023-11-21T15:15:58;2.77;;;2.57;;
9115;SDS011;4593;53.652;10.168;2023-11-21T15:18:32;2.60;;;2.40;;
9115;SDS011;4593;53.652;10.168;2023-11-21T15:20:59;5.30;;;2.30;;
9115;SDS011;4593;53.652;10.168;2023-11-21T15:23:25;2.90;;;2.23;;